American Duchess — WDJ2153 — position and weather

sailwx.info

Track history (hours):
 
Tides and Currents Weather Stations Pressure Air Temp Water Temp Dewpoint Dewpoint Depression Visibility Wind Speed Wind Dir Waves Ship Positions

American Duchess

Owner: American Duchess Inc., New Albany, IN. More information available from US FCC via Universal Licensing System and Coast Guard Vessel Documentation Center.

Last reported at 2017-Nov-17 15:04 UTC. Time now 2017-Nov-22 09:25 UTC.
Position N 30°30' W 091°17'.

Length 104 m; draft 2.6 m.

Type: Passenger vessel. MMSI: 367755720.

Date/timePositionNaut miles runAvg speedWind from/ knotsBaromVisibWave heightAir tempDewpointWater temp
2017-Nov-17 15:04N 30°30' W 091°17'79 2.2
2017-Nov-16 03:56N 31°49' W 091°21'1210.1
2017-Nov-16 02:47N 31°58' W 091°11'610.9
2017-Nov-16 02:16N 31°60' W 091°05'311.6
2017-Nov-16 02:00N 32°03' W 091°04'510.9
2017-Nov-16 01:30N 32°07' W 091°07'510.4
2017-Nov-16 01:00N 32°08' W 091°00'612.5
2017-Nov-16 00:30N 32°14' W 090°59'612.2
2017-Nov-16 00:00N 32°19' W 090°54'2 3.6
2017-Nov-15 23:29N 32°21' W 090°53'0 0.9
2017-Nov-15 22:59N 32°21' W 090°53'0 0.0
2017-Nov-15 22:29N 32°21' W 090°53'0 0.0
2017-Nov-15 21:59N 32°21' W 090°53'0 0.0
2017-Nov-15 21:29N 32°21' W 090°53'0 0.0
2017-Nov-15 20:59N 32°21' W 090°53'0 0.0
2017-Nov-15 20:29N 32°21' W 090°53'0 0.0
2017-Nov-15 19:59N 32°21' W 090°53'0 0.0
2017-Nov-15 19:29N 32°21' W 090°53'0 0.0
2017-Nov-15 18:59N 32°21' W 090°53'0 0.0
2017-Nov-15 18:29N 32°21' W 090°53'0 0.0
2017-Nov-15 17:59N 32°21' W 090°53'0 0.0
2017-Nov-15 17:29N 32°21' W 090°53'0 0.0
2017-Nov-15 16:59N 32°21' W 090°53'0 0.0
2017-Nov-15 16:29N 32°21' W 090°53'0 0.0
2017-Nov-15 15:59N 32°21' W 090°53'0 0.0
2017-Nov-15 15:29N 32°21' W 090°53'0 0.0
2017-Nov-15 14:59N 32°21' W 090°53'0 0.0
2017-Nov-15 14:29N 32°21' W 090°53'0 0.0
2017-Nov-15 13:59N 32°21' W 090°53'0 0.0
2017-Nov-15 13:30N 32°21' W 090°53'0 0.0
2017-Nov-15 13:00N 32°21' W 090°53'1 1.5
2017-Nov-15 12:31N 32°20' W 090°54'2 3.9
2017-Nov-15 12:00N 32°21' W 090°56'3 7.0
2017-Nov-15 11:31N 32°21' W 090°60'5 9.0
2017-Nov-15 11:00N 32°26' W 091°01'5 9.2
2017-Nov-15 10:30N 32°28' W 091°06'510.0
2017-Nov-15 10:00N 32°33' W 091°06'510.4
2017-Nov-15 09:31N 32°37' W 091°09'8 8.0
2017-Nov-15 08:33N 32°44' W 091°04'4 9.9
2017-Nov-15 08:07N 32°45' W 091°09'612.2
2017-Nov-15 07:39N 32°51' W 091°08'212.7
2017-Nov-15 07:29N 32°52' W 091°06'  
2017-Nov-10 23:53N 32°40' W 091°08'2 5.7
2017-Nov-10 23:30N 32°38' W 091°09'3 5.9
2017-Nov-10 23:00N 32°35' W 091°08'3 5.7
2017-Nov-10 22:24N 32°32' W 091°06'2 6.0
2017-Nov-10 21:59N 32°30' W 091°07'3 6.2
2017-Nov-10 21:30N 32°27' W 091°06'3 6.6
2017-Nov-10 21:00N 32°26' W 091°02'3 5.9
2017-Nov-10 20:30N 32°24' W 090°59'3 5.5
2017-Nov-10 20:00N 32°21' W 090°60'3 6.8
2017-Nov-10 19:30N 32°21' W 090°56'2 4.0
2017-Nov-10 19:00N 32°21' W 090°53'0 0.6
2017-Nov-10 18:30N 32°21' W 090°53'0 0.0
2017-Nov-10 18:00N 32°21' W 090°53'0 0.0
2017-Nov-10 17:30N 32°21' W 090°53'0 0.0
2017-Nov-10 17:00N 32°21' W 090°53'0 0.0
2017-Nov-10 16:30N 32°21' W 090°53'0 0.0
2017-Nov-10 16:00N 32°21' W 090°53'0 0.0
2017-Nov-10 15:30N 32°21' W 090°53'0 0.0
2017-Nov-10 15:00N 32°21' W 090°53'0 0.0
2017-Nov-10 14:30N 32°21' W 090°53'0 0.0
2017-Nov-10 14:00N 32°21' W 090°53'0 0.0
2017-Nov-10 13:30N 32°21' W 090°53'0 0.0
2017-Nov-10 13:00N 32°21' W 090°53'0 0.0
2017-Nov-10 12:31N 32°21' W 090°53'1 2.3
2017-Nov-10 12:01N 32°20' W 090°54'2 3.5
2017-Nov-10 11:30N 32°19' W 090°55'2 3.0
2017-Nov-10 11:01N 32°17' W 090°56'2 3.1
2017-Nov-10 10:31N 32°16' W 090°57'2 4.7
2017-Nov-10 10:01N 32°15' W 090°59'3 5.5
2017-Nov-10 09:31N 32°12' W 090°59'3 5.0
2017-Nov-10 09:00N 32°09' W 091°00'2 5.0
2017-Nov-10 08:30N 32°07' W 091°01'2 4.6
2017-Nov-10 08:01N 32°08' W 091°04'2 4.6
2017-Nov-10 07:30N 32°07' W 091°07'3 2.4
2017-Nov-10 06:03N 32°05' W 091°04'0 2.4
2017-Nov-10 05:52N 32°04' W 091°04'2 5.2
2017-Nov-10 05:31N 32°02' W 091°04'7 5.9
2017-Nov-10 04:15N 31°58' W 091°11'  
Track history (hours):
 
Tides and Currents Weather Stations Pressure Air Temp Water Temp Dewpoint Dewpoint Depression Visibility Wind Speed Wind Dir Waves Ship Positions

American Duchess

Owner: American Duchess Inc., New Albany, IN. More information available from US FCC via Universal Licensing System and Coast Guard Vessel Documentation Center.

Last reported at 2017-Nov-17 15:04 UTC. Time now 2017-Nov-22 09:25 UTC.
Position N 30°30' W 091°17'.

Length 104 m; draft 2.6 m.

Type: Passenger vessel. MMSI: 367755720.

Date/timePositionNaut miles runAvg speedWind from/ knotsBaromVisibWave heightAir tempDewpointWater temp
2017-Nov-17 15:04N 30°30' W 091°17'79 2.2
2017-Nov-16 03:56N 31°49' W 091°21'1210.1
2017-Nov-16 02:47N 31°58' W 091°11'610.9
2017-Nov-16 02:16N 31°60' W 091°05'311.6
2017-Nov-16 02:00N 32°03' W 091°04'510.9
2017-Nov-16 01:30N 32°07' W 091°07'510.4
2017-Nov-16 01:00N 32°08' W 091°00'612.5
2017-Nov-16 00:30N 32°14' W 090°59'612.2
2017-Nov-16 00:00N 32°19' W 090°54'2 3.6
2017-Nov-15 23:29N 32°21' W 090°53'0 0.9
2017-Nov-15 22:59N 32°21' W 090°53'0 0.0
2017-Nov-15 22:29N 32°21' W 090°53'0 0.0
2017-Nov-15 21:59N 32°21' W 090°53'0 0.0
2017-Nov-15 21:29N 32°21' W 090°53'0 0.0
2017-Nov-15 20:59N 32°21' W 090°53'0 0.0
2017-Nov-15 20:29N 32°21' W 090°53'0 0.0
2017-Nov-15 19:59N 32°21' W 090°53'0 0.0
2017-Nov-15 19:29N 32°21' W 090°53'0 0.0
2017-Nov-15 18:59N 32°21' W 090°53'0 0.0
2017-Nov-15 18:29N 32°21' W 090°53'0 0.0
2017-Nov-15 17:59N 32°21' W 090°53'0 0.0
2017-Nov-15 17:29N 32°21' W 090°53'0 0.0
2017-Nov-15 16:59N 32°21' W 090°53'0 0.0
2017-Nov-15 16:29N 32°21' W 090°53'0 0.0
2017-Nov-15 15:59N 32°21' W 090°53'0 0.0
2017-Nov-15 15:29N 32°21' W 090°53'0 0.0
2017-Nov-15 14:59N 32°21' W 090°53'0 0.0
2017-Nov-15 14:29N 32°21' W 090°53'0 0.0
2017-Nov-15 13:59N 32°21' W 090°53'0 0.0
2017-Nov-15 13:30N 32°21' W 090°53'0 0.0
2017-Nov-15 13:00N 32°21' W 090°53'1 1.5
2017-Nov-15 12:31N 32°20' W 090°54'2 3.9
2017-Nov-15 12:00N 32°21' W 090°56'3 7.0
2017-Nov-15 11:31N 32°21' W 090°60'5 9.0
2017-Nov-15 11:00N 32°26' W 091°01'5 9.2
2017-Nov-15 10:30N 32°28' W 091°06'510.0
2017-Nov-15 10:00N 32°33' W 091°06'510.4
2017-Nov-15 09:31N 32°37' W 091°09'8 8.0
2017-Nov-15 08:33N 32°44' W 091°04'4 9.9
2017-Nov-15 08:07N 32°45' W 091°09'612.2
2017-Nov-15 07:39N 32°51' W 091°08'212.7
2017-Nov-15 07:29N 32°52' W 091°06'  
2017-Nov-10 23:53N 32°40' W 091°08'2 5.7
2017-Nov-10 23:30N 32°38' W 091°09'3 5.9
2017-Nov-10 23:00N 32°35' W 091°08'3 5.7
2017-Nov-10 22:24N 32°32' W 091°06'2 6.0
2017-Nov-10 21:59N 32°30' W 091°07'3 6.2
2017-Nov-10 21:30N 32°27' W 091°06'3 6.6
2017-Nov-10 21:00N 32°26' W 091°02'3 5.9
2017-Nov-10 20:30N 32°24' W 090°59'3 5.5
2017-Nov-10 20:00N 32°21' W 090°60'3 6.8
2017-Nov-10 19:30N 32°21' W 090°56'2 4.0
2017-Nov-10 19:00N 32°21' W 090°53'0 0.6
2017-Nov-10 18:30N 32°21' W 090°53'0 0.0
2017-Nov-10 18:00N 32°21' W 090°53'0 0.0
2017-Nov-10 17:30N 32°21' W 090°53'0 0.0
2017-Nov-10 17:00N 32°21' W 090°53'0 0.0
2017-Nov-10 16:30N 32°21' W 090°53'0 0.0
2017-Nov-10 16:00N 32°21' W 090°53'0 0.0
2017-Nov-10 15:30N 32°21' W 090°53'0 0.0
2017-Nov-10 15:00N 32°21' W 090°53'0 0.0
2017-Nov-10 14:30N 32°21' W 090°53'0 0.0
2017-Nov-10 14:00N 32°21' W 090°53'0 0.0
2017-Nov-10 13:30N 32°21' W 090°53'0 0.0
2017-Nov-10 13:00N 32°21' W 090°53'0 0.0
2017-Nov-10 12:31N 32°21' W 090°53'1 2.3
2017-Nov-10 12:01N 32°20' W 090°54'2 3.5
2017-Nov-10 11:30N 32°19' W 090°55'2 3.0
2017-Nov-10 11:01N 32°17' W 090°56'2 3.1
2017-Nov-10 10:31N 32°16' W 090°57'2 4.7
2017-Nov-10 10:01N 32°15' W 090°59'3 5.5
2017-Nov-10 09:31N 32°12' W 090°59'3 5.0
2017-Nov-10 09:00N 32°09' W 091°00'2 5.0
2017-Nov-10 08:30N 32°07' W 091°01'2 4.6
2017-Nov-10 08:01N 32°08' W 091°04'2 4.6
2017-Nov-10 07:30N 32°07' W 091°07'3 2.4
2017-Nov-10 06:03N 32°05' W 091°04'0 2.4
2017-Nov-10 05:52N 32°04' W 091°04'2 5.2
2017-Nov-10 05:31N 32°02' W 091°04'7 5.9
2017-Nov-10 04:15N 31°58' W 091°11'  

Dump ship's entire track history